sensor_id;sensor_type;location;lat;lon;timestamp;temperature;humidity
23405;DHT22;11875;49.356;2.718;2022-10-16T00:01:12;16.50;99.90
23405;DHT22;11875;49.356;2.718;2022-10-16T00:03:38;16.30;99.90
23405;DHT22;11875;49.356;2.718;2022-10-16T00:06:05;16.10;99.90
23405;DHT22;11875;49.356;2.718;2022-10-16T00:08:30;16.10;99.90
23405;DHT22;11875;49.356;2.718;2022-10-16T00:11:06;15.90;99.90
23405;DHT22;11875;49.356;2.718;2022-10-16T00:13:34;15.80;99.90
23405;DHT22;11875;49.356;2.718;2022-10-16T00:16:00;15.70;99.90
23405;DHT22;11875;49.356;2.718;2022-10-16T00:18:27;15.80;99.90
23405;DHT22;11875;49.356;2.718;2022-10-16T00:20:53;15.80;99.90
23405;DHT22;11875;49.356;2.718;2022-10-16T00:23:20;15.80;99.90
23405;DHT22;11875;49.356;2.718;2022-10-16T00:25:58;15.90;99.90
23405;DHT22;11875;49.356;2.718;2022-10-16T00:28:24;16.00;99.90
23405;DHT22;11875;49.356;2.718;2022-10-16T00:30:50;16.10;99.90
23405;DHT22;11875;49.356;2.718;2022-10-16T00:33:16;16.20;99.90
23405;DHT22;11875;49.356;2.718;2022-10-16T00:35:41;16.20;99.90
23405;DHT22;11875;49.356;2.718;2022-10-16T00:38:07;16.20;99.90
23405;DHT22;11875;49.356;2.718;2022-10-16T00:40:33;16.20;99.90
23405;DHT22;11875;49.356;2.718;2022-10-16T00:42:58;16.30;99.90
23405;DHT22;11875;49.356;2.718;2022-10-16T00:45:24;16.30;99.90
23405;DHT22;11875;49.356;2.718;2022-10-16T00:47:52;16.20;99.90
23405;DHT22;11875;49.356;2.718;2022-10-16T00:50:26;16.20;99.90
23405;DHT22;11875;49.356;2.718;2022-10-16T00:52:53;16.30;99.90
23405;DHT22;11875;49.356;2.718;2022-10-16T00:55:19;16.40;99.90
23405;DHT22;11875;49.356;2.718;2022-10-16T00:57:46;16.50;99.90
23405;DHT22;11875;49.356;2.718;2022-10-16T01:00:15;16.50;99.90
23405;DHT22;11875;49.356;2.718;2022-10-16T01:02:42;16.60;99.90
23405;DHT22;11875;49.356;2.718;2022-10-16T01:05:08;16.60;99.90
23405;DHT22;11875;49.356;2.718;2022-10-16T01:13:03;16.70;99.90
23405;DHT22;11875;49.356;2.718;2022-10-16T01:15:37;16.70;99.90
23405;DHT22;11875;49.356;2.718;2022-10-16T01:18:09;16.70;99.90
23405;DHT22;11875;49.356;2.718;2022-10-16T01:20:45;16.70;99.90
23405;DHT22;11875;49.356;2.718;2022-10-16T01:26:03;16.60;99.90
23405;DHT22;11875;49.356;2.718;2022-10-16T01:28:41;16.60;99.90
23405;DHT22;11875;49.356;2.718;2022-10-16T01:31:09;16.50;99.90
23405;DHT22;11875;49.356;2.718;2022-10-16T01:33:42;16.50;99.90
23405;DHT22;11875;49.356;2.718;2022-10-16T01:36:13;16.60;99.90
23405;DHT22;11875;49.356;2.718;2022-10-16T01:38:40;16.60;99.90
23405;DHT22;11875;49.356;2.718;2022-10-16T01:41:15;16.50;99.90
23405;DHT22;11875;49.356;2.718;2022-10-16T01:44:04;16.30;99.90
23405;DHT22;11875;49.356;2.718;2022-10-16T01:46:32;16.30;99.90
23405;DHT22;11875;49.356;2.718;2022-10-16T01:48:59;16.30;99.90
23405;DHT22;11875;49.356;2.718;2022-10-16T01:51:26;16.20;99.90
23405;DHT22;11875;49.356;2.718;2022-10-16T01:53:55;16.00;99.90
23405;DHT22;11875;49.356;2.718;2022-10-16T01:56:22;15.90;99.90
23405;DHT22;11875;49.356;2.718;2022-10-16T01:59:04;16.10;99.90
23405;DHT22;11875;49.356;2.718;2022-10-16T02:01:32;16.10;99.90
23405;DHT22;11875;49.356;2.718;2022-10-16T02:04:03;16.00;99.90
23405;DHT22;11875;49.356;2.718;2022-10-16T02:06:32;16.10;99.90
23405;DHT22;11875;49.356;2.718;2022-10-16T02:08:59;16.20;99.90
23405;DHT22;11875;49.356;2.718;2022-10-16T02:11:24;16.20;99.90
23405;DHT22;11875;49.356;2.718;2022-10-16T02:13:58;16.30;99.90
23405;DHT22;11875;49.356;2.718;2022-10-16T02:16:43;16.30;99.90
23405;DHT22;11875;49.356;2.718;2022-10-16T02:19:09;16.30;99.90
23405;DHT22;11875;49.356;2.718;2022-10-16T02:24:31;16.00;99.90
23405;DHT22;11875;49.356;2.718;2022-10-16T02:27:17;15.80;99.90
23405;DHT22;11875;49.356;2.718;2022-10-16T02:29:49;16.00;99.90
23405;DHT22;11875;49.356;2.718;2022-10-16T02:32:21;16.00;99.90
23405;DHT22;11875;49.356;2.718;2022-10-16T02:34:49;16.00;99.90
23405;DHT22;11875;49.356;2.718;2022-10-16T02:37:16;15.80;99.90
23405;DHT22;11875;49.356;2.718;2022-10-16T02:39:43;15.70;99.90
23405;DHT22;11875;49.356;2.718;2022-10-16T02:42:13;15.70;99.90
23405;DHT22;11875;49.356;2.718;2022-10-16T02:44:39;15.80;99.90
23405;DHT22;11875;49.356;2.718;2022-10-16T02:47:04;15.70;99.90
23405;DHT22;11875;49.356;2.718;2022-10-16T02:49:30;15.80;99.90
23405;DHT22;11875;49.356;2.718;2022-10-16T02:51:56;15.90;99.90
23405;DHT22;11875;49.356;2.718;2022-10-16T02:54:21;16.00;99.90
23405;DHT22;11875;49.356;2.718;2022-10-16T02:56:47;16.10;99.90
23405;DHT22;11875;49.356;2.718;2022-10-16T02:59:12;16.20;99.90
23405;DHT22;11875;49.356;2.718;2022-10-16T03:01:38;16.20;99.90
23405;DHT22;11875;49.356;2.718;2022-10-16T03:04:04;16.20;99.90
23405;DHT22;11875;49.356;2.718;2022-10-16T03:06:29;16.30;99.90
23405;DHT22;11875;49.356;2.718;2022-10-16T03:08:55;16.40;99.90
23405;DHT22;11875;49.356;2.718;2022-10-16T03:11:20;16.40;99.90
23405;DHT22;11875;49.356;2.718;2022-10-16T03:13:46;16.30;99.90
23405;DHT22;11875;49.356;2.718;2022-10-16T03:16:11;16.40;99.90
23405;DHT22;11875;49.356;2.718;2022-10-16T03:18:37;16.40;99.90
23405;DHT22;11875;49.356;2.718;2022-10-16T03:21:03;16.20;99.90
23405;DHT22;11875;49.356;2.718;2022-10-16T03:23:29;16.10;99.90
23405;DHT22;11875;49.356;2.718;2022-10-16T03:25:54;16.00;99.90
23405;DHT22;11875;49.356;2.718;2022-10-16T03:28:20;16.00;99.90
23405;DHT22;11875;49.356;2.718;2022-10-16T03:30:46;16.10;99.90
23405;DHT22;11875;49.356;2.718;2022-10-16T03:33:11;16.10;99.90
23405;DHT22;11875;49.356;2.718;2022-10-16T03:35:37;16.20;99.90
23405;DHT22;11875;49.356;2.718;2022-10-16T03:38:03;16.20;99.90
23405;DHT22;11875;49.356;2.718;2022-10-16T03:40:28;16.20;99.90
23405;DHT22;11875;49.356;2.718;2022-10-16T03:42:55;16.30;99.90
23405;DHT22;11875;49.356;2.718;2022-10-16T03:45:22;16.40;99.90
23405;DHT22;11875;49.356;2.718;2022-10-16T03:47:48;16.40;99.90
23405;DHT22;11875;49.356;2.718;2022-10-16T03:50:14;16.30;99.90
23405;DHT22;11875;49.356;2.718;2022-10-16T03:52:39;16.30;99.90
23405;DHT22;11875;49.356;2.718;2022-10-16T03:55:05;16.30;99.90
23405;DHT22;11875;49.356;2.718;2022-10-16T03:57:31;16.20;99.90
23405;DHT22;11875;49.356;2.718;2022-10-16T03:59:57;16.20;99.90
23405;DHT22;11875;49.356;2.718;2022-10-16T04:02:23;16.30;99.90
23405;DHT22;11875;49.356;2.718;2022-10-16T04:04:49;16.30;99.90
23405;DHT22;11875;49.356;2.718;2022-10-16T04:07:14;16.30;99.90
23405;DHT22;11875;49.356;2.718;2022-10-16T04:09:40;16.20;99.90
23405;DHT22;11875;49.356;2.718;2022-10-16T04:12:06;16.10;99.90
23405;DHT22;11875;49.356;2.718;2022-10-16T04:14:31;16.00;99.90
23405;DHT22;11875;49.356;2.718;2022-10-16T04:16:57;15.90;99.90
23405;DHT22;11875;49.356;2.718;2022-10-16T04:19:22;15.90;99.90
23405;DHT22;11875;49.356;2.718;2022-10-16T04:21:48;16.00;99.90
23405;DHT22;11875;49.356;2.718;2022-10-16T04:24:14;15.90;99.90
23405;DHT22;11875;49.356;2.718;2022-10-16T04:26:39;15.90;99.90
23405;DHT22;11875;49.356;2.718;2022-10-16T04:29:05;15.80;99.90
23405;DHT22;11875;49.356;2.718;2022-10-16T04:31:31;15.80;99.90
23405;DHT22;11875;49.356;2.718;2022-10-16T04:33:57;15.80;99.90
23405;DHT22;11875;49.356;2.718;2022-10-16T04:36:22;16.00;99.90
23405;DHT22;11875;49.356;2.718;2022-10-16T04:38:48;16.10;99.90
23405;DHT22;11875;49.356;2.718;2022-10-16T04:41:13;16.30;99.90
23405;DHT22;11875;49.356;2.718;2022-10-16T04:43:39;16.40;99.90
23405;DHT22;11875;49.356;2.718;2022-10-16T04:46:05;16.40;99.90
23405;DHT22;11875;49.356;2.718;2022-10-16T04:48:31;16.40;99.90
23405;DHT22;11875;49.356;2.718;2022-10-16T04:50:56;16.40;99.90
23405;DHT22;11875;49.356;2.718;2022-10-16T04:53:22;16.40;99.90
23405;DHT22;11875;49.356;2.718;2022-10-16T04:55:48;16.30;99.90
23405;DHT22;11875;49.356;2.718;2022-10-16T04:58:14;16.20;99.90
23405;DHT22;11875;49.356;2.718;2022-10-16T05:00:39;16.20;99.90
23405;DHT22;11875;49.356;2.718;2022-10-16T05:03:05;16.20;99.90
23405;DHT22;11875;49.356;2.718;2022-10-16T05:05:34;16.20;99.90
23405;DHT22;11875;49.356;2.718;2022-10-16T05:08:00;16.20;99.90
23405;DHT22;11875;49.356;2.718;2022-10-16T05:10:26;16.20;99.90
23405;DHT22;11875;49.356;2.718;2022-10-16T05:12:51;16.10;99.90
23405;DHT22;11875;49.356;2.718;2022-10-16T05:15:17;16.20;99.90
23405;DHT22;11875;49.356;2.718;2022-10-16T05:17:43;16.10;99.90
23405;DHT22;11875;49.356;2.718;2022-10-16T05:20:10;16.10;99.90
23405;DHT22;11875;49.356;2.718;2022-10-16T05:22:36;16.00;99.90
23405;DHT22;11875;49.356;2.718;2022-10-16T05:25:01;15.90;99.90
23405;DHT22;11875;49.356;2.718;2022-10-16T05:27:27;15.90;99.90
23405;DHT22;11875;49.356;2.718;2022-10-16T05:29:53;15.90;99.90
23405;DHT22;11875;49.356;2.718;2022-10-16T05:32:18;16.00;99.90
23405;DHT22;11875;49.356;2.718;2022-10-16T05:34:45;16.00;99.90
23405;DHT22;11875;49.356;2.718;2022-10-16T05:37:11;16.10;99.90
23405;DHT22;11875;49.356;2.718;2022-10-16T05:39:37;16.20;99.90
23405;DHT22;11875;49.356;2.718;2022-10-16T05:42:03;16.30;99.90
23405;DHT22;11875;49.356;2.718;2022-10-16T05:44:29;16.40;99.90
23405;DHT22;11875;49.356;2.718;2022-10-16T05:46:55;16.40;99.90
23405;DHT22;11875;49.356;2.718;2022-10-16T05:49:20;16.40;99.90
23405;DHT22;11875;49.356;2.718;2022-10-16T05:51:46;16.40;99.90
23405;DHT22;11875;49.356;2.718;2022-10-16T05:54:12;16.40;99.90
23405;DHT22;11875;49.356;2.718;2022-10-16T05:56:37;16.40;99.90
23405;DHT22;11875;49.356;2.718;2022-10-16T05:59:03;16.40;99.90
23405;DHT22;11875;49.356;2.718;2022-10-16T06:01:29;16.40;99.90
23405;DHT22;11875;49.356;2.718;2022-10-16T06:03:56;16.40;99.90
23405;DHT22;11875;49.356;2.718;2022-10-16T06:06:23;16.40;99.90
23405;DHT22;11875;49.356;2.718;2022-10-16T06:08:51;16.40;99.90
23405;DHT22;11875;49.356;2.718;2022-10-16T06:11:20;16.40;99.90
23405;DHT22;11875;49.356;2.718;2022-10-16T06:13:50;16.30;99.90
23405;DHT22;11875;49.356;2.718;2022-10-16T06:16:16;16.30;99.90
23405;DHT22;11875;49.356;2.718;2022-10-16T06:18:42;16.20;99.90
23405;DHT22;11875;49.356;2.718;2022-10-16T06:21:09;16.10;99.90
23405;DHT22;11875;49.356;2.718;2022-10-16T06:23:35;16.10;99.90
23405;DHT22;11875;49.356;2.718;2022-10-16T06:26:09;16.10;99.90
23405;DHT22;11875;49.356;2.718;2022-10-16T06:28:35;16.10;99.90
23405;DHT22;11875;49.356;2.718;2022-10-16T06:31:01;16.20;99.90
23405;DHT22;11875;49.356;2.718;2022-10-16T06:33:27;16.20;99.90
23405;DHT22;11875;49.356;2.718;2022-10-16T06:35:52;16.20;99.90
23405;DHT22;11875;49.356;2.718;2022-10-16T06:38:18;16.20;99.90
23405;DHT22;11875;49.356;2.718;2022-10-16T06:40:43;16.20;99.90
23405;DHT22;11875;49.356;2.718;2022-10-16T06:43:09;16.10;99.90
23405;DHT22;11875;49.356;2.718;2022-10-16T06:45:34;16.10;99.90
23405;DHT22;11875;49.356;2.718;2022-10-16T06:48:00;16.10;99.90
23405;DHT22;11875;49.356;2.718;2022-10-16T06:50:26;16.00;99.90
23405;DHT22;11875;49.356;2.718;2022-10-16T06:52:51;16.10;99.90
23405;DHT22;11875;49.356;2.718;2022-10-16T06:55:17;16.00;99.90
23405;DHT22;11875;49.356;2.718;2022-10-16T06:57:43;16.00;99.90
23405;DHT22;11875;49.356;2.718;2022-10-16T07:00:09;16.00;99.90
23405;DHT22;11875;49.356;2.718;2022-10-16T07:02:35;15.90;99.90
23405;DHT22;11875;49.356;2.718;2022-10-16T07:05:00;15.60;99.90
23405;DHT22;11875;49.356;2.718;2022-10-16T07:07:26;15.50;99.90
23405;DHT22;11875;49.356;2.718;2022-10-16T07:09:52;15.60;99.90
23405;DHT22;11875;49.356;2.718;2022-10-16T07:12:17;15.60;99.90
23405;DHT22;11875;49.356;2.718;2022-10-16T07:14:43;15.70;99.90
23405;DHT22;11875;49.356;2.718;2022-10-16T07:17:09;15.90;99.90
23405;DHT22;11875;49.356;2.718;2022-10-16T07:19:34;16.00;99.90
23405;DHT22;11875;49.356;2.718;2022-10-16T07:22:00;16.10;99.90
23405;DHT22;11875;49.356;2.718;2022-10-16T07:24:26;16.10;99.90
23405;DHT22;11875;49.356;2.718;2022-10-16T07:26:52;16.20;99.90
23405;DHT22;11875;49.356;2.718;2022-10-16T07:29:20;16.20;99.90
23405;DHT22;11875;49.356;2.718;2022-10-16T07:31:46;16.20;99.90
23405;DHT22;11875;49.356;2.718;2022-10-16T07:34:14;16.10;99.90
23405;DHT22;11875;49.356;2.718;2022-10-16T07:36:40;16.10;99.90
23405;DHT22;11875;49.356;2.718;2022-10-16T07:39:05;16.10;99.90
23405;DHT22;11875;49.356;2.718;2022-10-16T07:41:31;16.10;99.90
23405;DHT22;11875;49.356;2.718;2022-10-16T07:43:58;16.50;99.90
23405;DHT22;11875;49.356;2.718;2022-10-16T07:46:25;16.80;99.90
23405;DHT22;11875;49.356;2.718;2022-10-16T07:48:51;16.90;99.90
23405;DHT22;11875;49.356;2.718;2022-10-16T07:51:19;17.00;99.90
23405;DHT22;11875;49.356;2.718;2022-10-16T07:53:45;17.00;99.90
23405;DHT22;11875;49.356;2.718;2022-10-16T07:56:12;17.10;99.90
23405;DHT22;11875;49.356;2.718;2022-10-16T07:58:37;17.40;99.90
23405;DHT22;11875;49.356;2.718;2022-10-16T08:01:05;17.50;99.90
23405;DHT22;11875;49.356;2.718;2022-10-16T08:03:31;17.50;99.90
23405;DHT22;11875;49.356;2.718;2022-10-16T08:05:57;17.80;99.90
23405;DHT22;11875;49.356;2.718;2022-10-16T08:08:23;18.00;99.90
23405;DHT22;11875;49.356;2.718;2022-10-16T08:10:49;18.00;99.90
23405;DHT22;11875;49.356;2.718;2022-10-16T08:13:15;18.00;99.90
23405;DHT22;11875;49.356;2.718;2022-10-16T08:15:42;17.80;99.90
23405;DHT22;11875;49.356;2.718;2022-10-16T08:18:08;17.70;99.90
23405;DHT22;11875;49.356;2.718;2022-10-16T08:20:34;17.80;99.90
23405;DHT22;11875;49.356;2.718;2022-10-16T08:23:00;17.90;99.90
23405;DHT22;11875;49.356;2.718;2022-10-16T08:25:26;18.00;99.90
23405;DHT22;11875;49.356;2.718;2022-10-16T08:27:52;18.40;99.90
23405;DHT22;11875;49.356;2.718;2022-10-16T08:30:19;18.50;99.90
23405;DHT22;11875;49.356;2.718;2022-10-16T08:32:46;18.60;99.90
23405;DHT22;11875;49.356;2.718;2022-10-16T08:35:13;18.50;99.90
23405;DHT22;11875;49.356;2.718;2022-10-16T08:37:39;18.40;99.90
23405;DHT22;11875;49.356;2.718;2022-10-16T08:40:06;18.40;99.90
23405;DHT22;11875;49.356;2.718;2022-10-16T08:45:31;18.00;99.90
23405;DHT22;11875;49.356;2.718;2022-10-16T08:50:40;18.00;99.90
23405;DHT22;11875;49.356;2.718;2022-10-16T08:53:09;17.80;99.90
23405;DHT22;11875;49.356;2.718;2022-10-16T08:55:51;17.80;99.90
23405;DHT22;11875;49.356;2.718;2022-10-16T08:58:22;17.70;99.90
23405;DHT22;11875;49.356;2.718;2022-10-16T09:00:56;17.80;99.90
23405;DHT22;11875;49.356;2.718;2022-10-16T09:03:24;17.80;99.90
23405;DHT22;11875;49.356;2.718;2022-10-16T09:06:10;17.90;99.90
23405;DHT22;11875;49.356;2.718;2022-10-16T09:11:15;17.90;99.90
23405;DHT22;11875;49.356;2.718;2022-10-16T09:13:49;18.00;99.90
23405;DHT22;11875;49.356;2.718;2022-10-16T09:16:19;18.00;99.90
23405;DHT22;11875;49.356;2.718;2022-10-16T09:19:04;17.90;99.90
23405;DHT22;11875;49.356;2.718;2022-10-16T09:21:43;18.10;99.90
23405;DHT22;11875;49.356;2.718;2022-10-16T09:24:15;18.30;99.90
23405;DHT22;11875;49.356;2.718;2022-10-16T09:26:41;18.30;99.90
23405;DHT22;11875;49.356;2.718;2022-10-16T09:29:11;18.40;99.90
23405;DHT22;11875;49.356;2.718;2022-10-16T09:31:37;18.50;99.90
23405;DHT22;11875;49.356;2.718;2022-10-16T09:34:04;18.60;99.90
23405;DHT22;11875;49.356;2.718;2022-10-16T09:36:36;18.60;99.90
23405;DHT22;11875;49.356;2.718;2022-10-16T09:39:06;18.60;99.90
23405;DHT22;11875;49.356;2.718;2022-10-16T09:41:35;18.60;99.90
23405;DHT22;11875;49.356;2.718;2022-10-16T09:44:02;18.60;99.90
23405;DHT22;11875;49.356;2.718;2022-10-16T09:46:36;18.50;99.90
23405;DHT22;11875;49.356;2.718;2022-10-16T09:49:24;18.40;99.90
23405;DHT22;11875;49.356;2.718;2022-10-16T09:51:51;18.40;99.90
23405;DHT22;11875;49.356;2.718;2022-10-16T09:54:17;18.40;99.90
23405;DHT22;11875;49.356;2.718;2022-10-16T09:56:43;18.30;99.90
23405;DHT22;11875;49.356;2.718;2022-10-16T09:59:16;18.40;99.90
23405;DHT22;11875;49.356;2.718;2022-10-16T10:01:46;18.50;99.90
23405;DHT22;11875;49.356;2.718;2022-10-16T10:04:12;18.60;99.90
23405;DHT22;11875;49.356;2.718;2022-10-16T10:06:46;18.60;99.90
23405;DHT22;11875;49.356;2.718;2022-10-16T10:09:29;18.70;99.90
23405;DHT22;11875;49.356;2.718;2022-10-16T10:12:02;18.60;99.90
23405;DHT22;11875;49.356;2.718;2022-10-16T10:22:40;18.60;99.90
23405;DHT22;11875;49.356;2.718;2022-10-16T10:30:18;19.00;99.90
23405;DHT22;11875;49.356;2.718;2022-10-16T10:35:28;19.10;99.90
23405;DHT22;11875;49.356;2.718;2022-10-16T10:41:16;19.20;99.90
23405;DHT22;11875;49.356;2.718;2022-10-16T10:46:42;19.10;99.90
23405;DHT22;11875;49.356;2.718;2022-10-16T10:51:48;19.40;99.90
23405;DHT22;11875;49.356;2.718;2022-10-16T10:54:49;19.40;99.90
23405;DHT22;11875;49.356;2.718;2022-10-16T11:02:40;19.50;99.90
23405;DHT22;11875;49.356;2.718;2022-10-16T11:05:31;19.60;99.90
23405;DHT22;11875;49.356;2.718;2022-10-16T11:08:12;19.60;99.90
23405;DHT22;11875;49.356;2.718;2022-10-16T11:10:52;19.50;99.90
23405;DHT22;11875;49.356;2.718;2022-10-16T11:13:40;19.70;99.90
23405;DHT22;11875;49.356;2.718;2022-10-16T11:16:35;19.80;99.90
23405;DHT22;11875;49.356;2.718;2022-10-16T11:22:15;19.80;99.90
23405;DHT22;11875;49.356;2.718;2022-10-16T11:25:04;19.80;99.90
23405;DHT22;11875;49.356;2.718;2022-10-16T11:27:44;19.80;99.90
23405;DHT22;11875;49.356;2.718;2022-10-16T11:30:26;19.90;99.90
23405;DHT22;11875;49.356;2.718;2022-10-16T11:33:10;19.90;99.90
23405;DHT22;11875;49.356;2.718;2022-10-16T11:41:18;19.90;99.90
23405;DHT22;11875;49.356;2.718;2022-10-16T11:44:13;19.70;99.90
23405;DHT22;11875;49.356;2.718;2022-10-16T11:46:42;19.70;99.90
23405;DHT22;11875;49.356;2.718;2022-10-16T11:49:13;19.70;99.90
23405;DHT22;11875;49.356;2.718;2022-10-16T11:51:43;19.80;99.90
23405;DHT22;11875;49.356;2.718;2022-10-16T11:56:48;19.60;99.90
23405;DHT22;11875;49.356;2.718;2022-10-16T12:01:51;19.60;99.90
23405;DHT22;11875;49.356;2.718;2022-10-16T12:07:22;19.70;99.90
23405;DHT22;11875;49.356;2.718;2022-10-16T12:09:50;19.70;99.90
23405;DHT22;11875;49.356;2.718;2022-10-16T12:12:27;19.70;99.90
23405;DHT22;11875;49.356;2.718;2022-10-16T12:15:00;19.70;99.90
23405;DHT22;11875;49.356;2.718;2022-10-16T12:17:37;19.80;99.90
23405;DHT22;11875;49.356;2.718;2022-10-16T12:27:59;20.00;99.90
23405;DHT22;11875;49.356;2.718;2022-10-16T12:30:27;20.20;99.90
23405;DHT22;11875;49.356;2.718;2022-10-16T12:32:56;20.10;99.90
23405;DHT22;11875;49.356;2.718;2022-10-16T12:35:24;20.00;99.90
23405;DHT22;11875;49.356;2.718;2022-10-16T12:37:51;20.10;99.90
23405;DHT22;11875;49.356;2.718;2022-10-16T12:40:32;20.10;99.90
23405;DHT22;11875;49.356;2.718;2022-10-16T12:42:58;20.10;99.90
23405;DHT22;11875;49.356;2.718;2022-10-16T12:45:34;20.00;99.90
23405;DHT22;11875;49.356;2.718;2022-10-16T12:48:01;20.00;99.90
23405;DHT22;11875;49.356;2.718;2022-10-16T12:50:36;20.20;99.90
23405;DHT22;11875;49.356;2.718;2022-10-16T12:53:16;20.20;99.90
23405;DHT22;11875;49.356;2.718;2022-10-16T12:55:52;20.30;99.90
23405;DHT22;11875;49.356;2.718;2022-10-16T13:01:25;20.50;99.90
23405;DHT22;11875;49.356;2.718;2022-10-16T13:04:04;20.30;99.90
23405;DHT22;11875;49.356;2.718;2022-10-16T13:07:03;20.40;99.90
23405;DHT22;11875;49.356;2.718;2022-10-16T13:23:48;20.40;99.90
23405;DHT22;11875;49.356;2.718;2022-10-16T13:29:02;20.40;99.90
23405;DHT22;11875;49.356;2.718;2022-10-16T13:31:28;20.40;99.90
23405;DHT22;11875;49.356;2.718;2022-10-16T13:33:57;20.50;99.90
23405;DHT22;11875;49.356;2.718;2022-10-16T13:36:27;20.40;99.90
23405;DHT22;11875;49.356;2.718;2022-10-16T13:41:43;20.40;99.90
23405;DHT22;11875;49.356;2.718;2022-10-16T13:44:14;20.40;99.90
23405;DHT22;11875;49.356;2.718;2022-10-16T13:46:41;20.20;99.90
23405;DHT22;11875;49.356;2.718;2022-10-16T13:49:16;20.20;99.90
23405;DHT22;11875;49.356;2.718;2022-10-16T13:51:54;20.30;99.90
23405;DHT22;11875;49.356;2.718;2022-10-16T13:54:20;20.30;99.90
23405;DHT22;11875;49.356;2.718;2022-10-16T13:56:46;20.30;99.90
23405;DHT22;11875;49.356;2.718;2022-10-16T13:59:35;20.30;99.90
23405;DHT22;11875;49.356;2.718;2022-10-16T14:02:08;20.40;99.90
23405;DHT22;11875;49.356;2.718;2022-10-16T14:04:40;20.40;99.90
23405;DHT22;11875;49.356;2.718;2022-10-16T14:07:23;20.20;99.90
23405;DHT22;11875;49.356;2.718;2022-10-16T14:09:51;20.30;99.90
23405;DHT22;11875;49.356;2.718;2022-10-16T14:12:17;20.40;99.90
23405;DHT22;11875;49.356;2.718;2022-10-16T14:14:46;20.30;99.90
23405;DHT22;11875;49.356;2.718;2022-10-16T14:17:16;20.30;99.90
23405;DHT22;11875;49.356;2.718;2022-10-16T14:19:47;20.30;99.90
23405;DHT22;11875;49.356;2.718;2022-10-16T14:22:39;20.30;99.90
23405;DHT22;11875;49.356;2.718;2022-10-16T14:30:28;20.50;99.90
23405;DHT22;11875;49.356;2.718;2022-10-16T14:33:03;20.40;99.90
23405;DHT22;11875;49.356;2.718;2022-10-16T14:35:36;20.30;99.90
23405;DHT22;11875;49.356;2.718;2022-10-16T14:38:04;20.20;99.90
23405;DHT22;11875;49.356;2.718;2022-10-16T14:40:36;20.10;99.90
23405;DHT22;11875;49.356;2.718;2022-10-16T14:43:04;20.10;99.90
23405;DHT22;11875;49.356;2.718;2022-10-16T14:45:33;20.30;99.90
23405;DHT22;11875;49.356;2.718;2022-10-16T14:48:06;20.20;99.90
23405;DHT22;11875;49.356;2.718;2022-10-16T14:50:38;20.20;99.90
23405;DHT22;11875;49.356;2.718;2022-10-16T14:53:10;20.20;99.90
23405;DHT22;11875;49.356;2.718;2022-10-16T14:55:37;20.20;99.90
23405;DHT22;11875;49.356;2.718;2022-10-16T14:58:03;20.10;99.90
23405;DHT22;11875;49.356;2.718;2022-10-16T15:00:28;20.10;99.90
23405;DHT22;11875;49.356;2.718;2022-10-16T15:02:54;20.10;99.90
23405;DHT22;11875;49.356;2.718;2022-10-16T15:05:27;20.10;99.90
23405;DHT22;11875;49.356;2.718;2022-10-16T15:07:54;20.00;99.90
23405;DHT22;11875;49.356;2.718;2022-10-16T15:10:22;20.10;99.90
23405;DHT22;11875;49.356;2.718;2022-10-16T15:12:48;20.10;99.90
23405;DHT22;11875;49.356;2.718;2022-10-16T15:17:49;20.20;99.90
23405;DHT22;11875;49.356;2.718;2022-10-16T15:20:18;20.20;99.90
23405;DHT22;11875;49.356;2.718;2022-10-16T15:22:43;20.30;99.90
23405;DHT22;11875;49.356;2.718;2022-10-16T15:28:02;20.30;99.90
23405;DHT22;11875;49.356;2.718;2022-10-16T15:30:28;20.30;99.90
23405;DHT22;11875;49.356;2.718;2022-10-16T15:32:54;20.30;99.90
23405;DHT22;11875;49.356;2.718;2022-10-16T15:35:20;20.30;99.90
23405;DHT22;11875;49.356;2.718;2022-10-16T15:37:47;20.40;99.90
23405;DHT22;11875;49.356;2.718;2022-10-16T15:40:14;20.30;99.90
23405;DHT22;11875;49.356;2.718;2022-10-16T15:42:40;20.50;99.90
23405;DHT22;11875;49.356;2.718;2022-10-16T15:45:06;20.50;99.90
23405;DHT22;11875;49.356;2.718;2022-10-16T15:47:32;20.50;99.90
23405;DHT22;11875;49.356;2.718;2022-10-16T15:49:57;20.60;99.90
23405;DHT22;11875;49.356;2.718;2022-10-16T15:52:23;20.60;99.90
23405;DHT22;11875;49.356;2.718;2022-10-16T15:54:48;20.60;99.90
23405;DHT22;11875;49.356;2.718;2022-10-16T15:57:14;20.60;99.90
23405;DHT22;11875;49.356;2.718;2022-10-16T15:59:40;20.60;99.90
23405;DHT22;11875;49.356;2.718;2022-10-16T16:02:05;20.60;99.90
23405;DHT22;11875;49.356;2.718;2022-10-16T16:04:31;20.70;99.90
23405;DHT22;11875;49.356;2.718;2022-10-16T16:06:57;20.70;99.90
23405;DHT22;11875;49.356;2.718;2022-10-16T16:09:22;20.80;99.90
23405;DHT22;11875;49.356;2.718;2022-10-16T16:11:49;20.80;99.90
23405;DHT22;11875;49.356;2.718;2022-10-16T16:14:14;21.00;99.90
23405;DHT22;11875;49.356;2.718;2022-10-16T16:16:41;21.10;99.90
23405;DHT22;11875;49.356;2.718;2022-10-16T16:19:06;21.10;99.90
23405;DHT22;11875;49.356;2.718;2022-10-16T16:21:33;21.20;99.90
23405;DHT22;11875;49.356;2.718;2022-10-16T16:23:59;21.20;99.90
23405;DHT22;11875;49.356;2.718;2022-10-16T16:26:25;21.30;99.90
23405;DHT22;11875;49.356;2.718;2022-10-16T16:28:55;21.30;99.90
23405;DHT22;11875;49.356;2.718;2022-10-16T16:31:27;21.30;99.90
23405;DHT22;11875;49.356;2.718;2022-10-16T16:33:53;21.30;99.90
23405;DHT22;11875;49.356;2.718;2022-10-16T16:36:18;21.40;99.90
23405;DHT22;11875;49.356;2.718;2022-10-16T16:38:45;21.40;99.90
23405;DHT22;11875;49.356;2.718;2022-10-16T16:41:12;21.40;99.90
23405;DHT22;11875;49.356;2.718;2022-10-16T16:43:38;21.40;99.90
23405;DHT22;11875;49.356;2.718;2022-10-16T16:46:04;21.40;99.90
23405;DHT22;11875;49.356;2.718;2022-10-16T16:48:30;21.40;99.90
23405;DHT22;11875;49.356;2.718;2022-10-16T16:50:56;21.30;99.90
23405;DHT22;11875;49.356;2.718;2022-10-16T16:53:22;21.20;99.90
23405;DHT22;11875;49.356;2.718;2022-10-16T16:55:53;21.20;99.90
23405;DHT22;11875;49.356;2.718;2022-10-16T16:58:19;21.20;99.90
23405;DHT22;11875;49.356;2.718;2022-10-16T17:00:48;21.20;99.90
23405;DHT22;11875;49.356;2.718;2022-10-16T17:03:13;21.10;99.90
23405;DHT22;11875;49.356;2.718;2022-10-16T17:05:39;21.00;99.90
23405;DHT22;11875;49.356;2.718;2022-10-16T17:08:08;21.00;99.90
23405;DHT22;11875;49.356;2.718;2022-10-16T17:10:33;21.00;99.90
23405;DHT22;11875;49.356;2.718;2022-10-16T17:12:59;21.00;99.90
23405;DHT22;11875;49.356;2.718;2022-10-16T17:15:25;20.90;99.90
23405;DHT22;11875;49.356;2.718;2022-10-16T17:17:50;20.90;99.90
23405;DHT22;11875;49.356;2.718;2022-10-16T17:20:16;20.80;99.90
23405;DHT22;11875;49.356;2.718;2022-10-16T17:22:41;20.80;99.90
23405;DHT22;11875;49.356;2.718;2022-10-16T17:25:07;20.70;99.90
23405;DHT22;11875;49.356;2.718;2022-10-16T17:27:34;20.60;99.90